createdAt,value
2018-08-25T11:27:32.000Z,58
2018-08-25T11:28:33.000Z,57
2018-08-25T11:29:32.000Z,53
2018-08-25T11:30:32.000Z,55
2018-08-25T11:31:33.000Z,55
2018-08-25T11:32:32.000Z,58
2018-08-25T11:33:32.000Z,51
2018-08-25T11:34:29.000Z,50
2018-08-25T11:35:30.000Z,46
2018-08-25T11:36:30.000Z,47
2018-08-25T11:37:31.000Z,50
2018-08-25T11:38:30.000Z,48
2018-08-25T11:39:30.000Z,47
2018-08-25T11:40:30.000Z,46
2018-08-25T11:41:29.000Z,45
2018-08-25T11:42:30.000Z,44
2018-08-25T11:43:31.000Z,44
2018-08-25T11:44:31.000Z,44
2018-08-25T11:45:30.000Z,44
2018-08-25T11:46:30.000Z,43
2018-08-25T11:47:30.000Z,43
2018-08-25T11:48:30.000Z,45
2018-08-25T11:49:31.000Z,42
2018-08-25T11:50:30.000Z,42
2018-08-25T11:51:30.000Z,49
2018-08-25T11:52:31.000Z,50
2018-08-25T11:53:30.000Z,51
2018-08-25T11:54:30.000Z,53
2018-08-25T11:55:31.000Z,54
2018-08-25T11:56:30.000Z,53
2018-08-25T11:57:30.000Z,52
2018-08-25T11:58:31.000Z,51
2018-08-25T11:59:30.000Z,52
2018-08-25T12:00:30.000Z,51
2018-08-25T12:01:31.000Z,46
2018-08-25T12:02:31.000Z,47
2018-08-25T12:03:31.000Z,48
2018-08-25T12:04:30.000Z,50
2018-08-25T12:05:30.000Z,47
2018-08-25T12:06:30.000Z,51
2018-08-25T12:07:30.000Z,48
2018-08-25T12:08:30.000Z,49
2018-08-25T12:09:30.000Z,49
2018-08-25T12:10:30.000Z,49
2018-08-25T12:11:30.000Z,52
2018-08-25T12:12:30.000Z,49
2018-08-25T12:13:31.000Z,48
2018-08-25T12:14:30.000Z,41
2018-08-25T12:15:30.000Z,43
2018-08-25T12:16:30.000Z,45
2018-08-25T13:08:29.000Z,43
2018-08-25T13:09:29.000Z,41
2018-08-25T13:10:30.000Z,44
2018-08-25T13:11:30.000Z,47
2018-08-25T13:12:31.000Z,49
2018-08-25T13:13:30.000Z,51
2018-08-25T13:14:30.000Z,52
2018-08-25T13:15:30.000Z,53
2018-08-25T13:16:30.000Z,53
2018-08-25T13:17:30.000Z,51
2018-08-25T13:18:31.000Z,51
2018-08-25T13:19:30.000Z,50
2018-08-25T13:20:29.000Z,49
2018-08-25T13:21:29.000Z,50
2018-08-25T13:22:30.000Z,50
2018-08-25T13:23:30.000Z,49
2018-08-25T13:24:31.000Z,54
2018-08-25T13:25:30.000Z,58
2018-08-25T13:26:31.000Z,57
2018-08-25T13:27:30.000Z,61
2018-08-25T13:28:30.000Z,71
2018-08-25T13:29:31.000Z,76
2018-08-25T13:30:31.000Z,75
2018-08-25T13:31:30.000Z,76
2018-08-25T13:32:31.000Z,72
2018-08-25T13:33:31.000Z,72
2018-08-25T13:34:30.000Z,73
2018-08-25T13:35:30.000Z,94
2018-08-25T13:36:30.000Z,69
2018-08-25T13:37:30.000Z,59
2018-08-25T13:38:30.000Z,59
2018-08-25T13:39:31.000Z,61
2018-08-25T13:40:30.000Z,61
2018-08-25T13:41:31.000Z,61
2018-08-25T13:42:31.000Z,61
2018-08-25T13:43:30.000Z,58
2018-08-25T13:44:31.000Z,58
2018-08-25T13:45:31.000Z,60
2018-08-25T13:46:30.000Z,61
2018-08-25T13:47:30.000Z,64
2018-08-25T13:48:31.000Z,67
2018-08-25T13:49:30.000Z,65
2018-08-25T13:50:31.000Z,63
2018-08-25T13:51:30.000Z,64
2018-08-25T13:52:30.000Z,63
2018-08-25T13:53:31.000Z,63
2018-08-25T13:54:30.000Z,63
2018-08-25T13:55:31.000Z,62
2018-08-25T13:56:30.000Z,62
2018-08-25T13:57:31.000Z,64
2018-08-25T13:58:30.000Z,65
2018-08-25T13:59:31.000Z,63
2018-08-25T14:00:30.000Z,68
2018-08-25T14:01:30.000Z,85
2018-08-25T14:02:30.000Z,91
2018-08-25T14:03:30.000Z,91
2018-08-25T14:04:31.000Z,91
2018-08-25T14:05:31.000Z,91
2018-08-25T14:06:30.000Z,92
2018-08-25T14:07:31.000Z,91
2018-08-25T14:08:30.000Z,92
2018-08-25T14:09:30.000Z,92
2018-08-25T14:10:30.000Z,92
2018-08-25T14:11:30.000Z,92
2018-08-25T14:12:30.000Z,93
2018-08-25T14:13:30.000Z,93
2018-08-25T14:14:30.000Z,93
2018-08-25T14:15:30.000Z,92
2018-08-25T14:16:30.000Z,88
2018-08-25T14:17:30.000Z,83
2018-08-25T15:18:05.000Z,64
2018-08-25T15:18:41.000Z,65
2018-08-25T15:19:30.000Z,67
2018-08-25T15:20:30.000Z,71
2018-08-25T15:21:31.000Z,74
2018-08-25T15:22:31.000Z,74
2018-08-25T15:23:30.000Z,73
2018-08-25T15:24:31.000Z,76
2018-08-25T15:25:31.000Z,76
2018-08-25T15:26:31.000Z,76
2018-08-25T15:27:31.000Z,79
2018-08-25T15:28:30.000Z,77
2018-08-25T15:29:30.000Z,76
2018-08-25T15:30:31.000Z,77
2018-08-25T15:31:30.000Z,76
2018-08-25T15:32:30.000Z,75
2018-08-25T15:33:31.000Z,76
2018-08-25T15:34:30.000Z,76
2018-08-25T15:35:31.000Z,77
2018-08-25T15:36:30.000Z,78
2018-08-25T15:37:30.000Z,77
2018-08-25T15:38:30.000Z,77
2018-08-25T15:39:32.000Z,78
2018-08-25T15:40:30.000Z,77
2018-08-25T15:41:30.000Z,77
2018-08-25T15:42:31.000Z,78
2018-08-25T15:43:30.000Z,78
2018-08-25T15:44:30.000Z,77
2018-08-25T15:45:30.000Z,76
2018-08-25T15:46:30.000Z,77
2018-08-25T15:47:30.000Z,79
2018-08-25T15:48:31.000Z,80
2018-08-25T15:49:31.000Z,80
2018-08-25T15:50:31.000Z,80
2018-08-25T15:51:30.000Z,79
2018-08-25T15:52:30.000Z,77
2018-08-25T15:53:30.000Z,77
2018-08-25T15:54:30.000Z,76
2018-08-25T15:55:30.000Z,76
2018-08-25T15:56:30.000Z,77
2018-08-25T15:57:30.000Z,78
2018-08-25T15:58:31.000Z,78
2018-08-25T15:59:30.000Z,78
2018-08-25T16:00:30.000Z,79
2018-08-25T16:01:31.000Z,80
2018-08-25T16:02:30.000Z,80
2018-08-25T16:03:30.000Z,79
2018-08-25T16:04:30.000Z,79
2018-08-25T16:05:30.000Z,80
2018-08-25T16:06:30.000Z,80
2018-08-25T16:07:30.000Z,80
2018-08-25T16:08:30.000Z,78
2018-08-25T16:09:31.000Z,76
2018-08-25T16:10:30.000Z,81
2018-08-25T16:11:30.000Z,75
2018-08-25T16:12:31.000Z,74
2018-08-25T16:13:30.000Z,76
2018-08-25T16:14:30.000Z,77
2018-08-25T16:15:30.000Z,76
2018-08-25T16:16:30.000Z,76
2018-08-25T16:17:31.000Z,75
2018-08-25T16:18:30.000Z,76
2018-08-25T16:19:30.000Z,76
2018-08-25T16:20:30.000Z,75
2018-08-25T16:21:29.000Z,75
2018-08-25T16:22:30.000Z,75
2018-08-25T16:23:30.000Z,76
2018-08-25T16:24:30.000Z,77
2018-08-25T16:25:31.000Z,77
2018-08-25T16:26:31.000Z,77
2018-08-25T16:27:30.000Z,77
2018-08-25T16:28:30.000Z,77
2018-08-25T16:29:30.000Z,78
2018-08-25T16:30:30.000Z,79
2018-08-25T16:31:30.000Z,80
2018-08-25T16:32:30.000Z,79
2018-08-25T16:33:30.000Z,80
2018-08-25T16:34:30.000Z,81
2018-08-25T16:35:30.000Z,81
2018-08-25T16:36:30.000Z,82
2018-08-25T16:37:30.000Z,82
2018-08-25T16:38:30.000Z,82
2018-08-25T16:39:32.000Z,82
2018-08-25T16:40:31.000Z,84
2018-08-25T16:41:31.000Z,85
2018-08-25T16:42:30.000Z,83
2018-08-25T16:43:30.000Z,83
2018-08-25T16:44:31.000Z,84
2018-08-25T16:45:31.000Z,83
2018-08-25T16:46:30.000Z,84
2018-08-25T16:47:30.000Z,85
2018-08-25T16:48:30.000Z,85
2018-08-25T16:49:30.000Z,84
2018-08-25T16:50:30.000Z,84
2018-08-25T16:51:29.000Z,89
2018-08-25T16:52:30.000Z,85
2018-08-25T16:53:30.000Z,84
2018-08-25T16:54:30.000Z,85
2018-08-25T16:55:30.000Z,86
2018-08-25T16:56:30.000Z,86
2018-08-25T16:57:30.000Z,85
2018-08-25T16:58:30.000Z,85
2018-08-25T16:59:30.000Z,85
2018-08-25T17:00:30.000Z,85
2018-08-25T17:01:30.000Z,85
2018-08-25T17:02:31.000Z,86
2018-08-25T17:03:30.000Z,91
2018-08-25T17:04:30.000Z,88
2018-08-25T17:05:30.000Z,87
2018-08-25T17:06:30.000Z,88
2018-08-25T17:07:30.000Z,87
2018-08-25T17:08:30.000Z,86
2018-08-25T17:09:31.000Z,87
2018-08-25T17:10:30.000Z,87
2018-08-25T17:11:30.000Z,86
2018-08-25T17:12:30.000Z,87
2018-08-25T17:13:30.000Z,91
2018-08-25T17:14:29.000Z,87
2018-08-25T17:15:30.000Z,91
2018-08-25T17:16:30.000Z,88
2018-08-25T17:17:30.000Z,91
2018-08-25T17:18:30.000Z,88
2018-08-25T17:19:30.000Z,88
2018-08-25T17:20:30.000Z,88
2018-08-25T17:21:29.000Z,89
2018-08-25T17:22:30.000Z,91
2018-08-25T17:23:30.000Z,91
2018-08-25T17:24:30.000Z,90
2018-08-25T17:25:30.000Z,88
2018-08-25T17:26:30.000Z,88
2018-08-25T17:27:30.000Z,88
2018-08-25T17:28:30.000Z,88
2018-08-25T17:29:30.000Z,89
2018-08-25T17:30:30.000Z,90
2018-08-25T17:31:30.000Z,91
2018-08-25T17:32:30.000Z,91
2018-08-25T17:33:30.000Z,91
2018-08-25T17:34:30.000Z,91
2018-08-25T17:35:31.000Z,91
2018-08-25T17:36:30.000Z,91
2018-08-25T17:37:30.000Z,91
2018-08-25T17:38:30.000Z,91
2018-08-25T17:39:31.000Z,91
2018-08-25T17:40:30.000Z,91
2018-08-25T17:41:30.000Z,91
2018-08-25T17:42:30.000Z,91
2018-08-25T17:43:31.000Z,91
2018-08-25T17:44:30.000Z,91
2018-08-25T17:45:31.000Z,91
2018-08-25T17:46:30.000Z,91
2018-08-25T17:47:30.000Z,91
2018-08-25T17:48:30.000Z,91
2018-08-25T17:49:31.000Z,91
2018-08-25T17:50:30.000Z,91
2018-08-25T17:51:30.000Z,91
2018-08-25T17:52:30.000Z,91
2018-08-25T17:53:31.000Z,91
2018-08-25T17:54:30.000Z,91
2018-08-25T17:55:31.000Z,91
2018-08-25T17:56:30.000Z,91
2018-08-25T17:57:30.000Z,91
2018-08-25T17:58:30.000Z,91
2018-08-25T17:59:30.000Z,91
2018-08-25T18:00:31.000Z,91
2018-08-25T18:01:30.000Z,91
2018-08-25T18:02:30.000Z,91
2018-08-25T18:03:30.000Z,91
2018-08-25T18:04:30.000Z,91
2018-08-25T18:05:30.000Z,91
2018-08-25T18:06:30.000Z,91
2018-08-25T18:07:30.000Z,91
2018-08-25T18:08:30.000Z,91
2018-08-25T18:09:31.000Z,90
2018-08-25T18:10:30.000Z,91
2018-08-25T18:11:31.000Z,89
2018-08-25T18:12:30.000Z,90
2018-08-25T18:13:29.000Z,90
2018-08-25T18:14:30.000Z,90
2018-08-25T18:15:30.000Z,89
2018-08-25T18:16:30.000Z,89
2018-08-25T18:17:30.000Z,89
2018-08-25T18:18:31.000Z,89
2018-08-25T18:19:30.000Z,90
2018-08-25T18:20:31.000Z,91
2018-08-25T18:21:31.000Z,91
2018-08-25T18:22:30.000Z,91
2018-08-25T18:23:30.000Z,91
2018-08-25T18:24:30.000Z,91
2018-08-25T18:25:30.000Z,91
2018-08-25T18:26:30.000Z,91
2018-08-25T18:27:30.000Z,90
2018-08-25T18:28:30.000Z,91
2018-08-25T18:29:31.000Z,91
2018-08-25T18:30:30.000Z,91
2018-08-25T18:31:31.000Z,91
2018-08-25T18:32:30.000Z,90
2018-08-25T18:33:30.000Z,90
2018-08-25T18:34:30.000Z,90
2018-08-25T18:35:30.000Z,90
2018-08-25T18:36:30.000Z,90
2018-08-25T18:37:30.000Z,91
2018-08-25T18:38:30.000Z,91
2018-08-25T18:39:31.000Z,91
2018-08-25T18:40:31.000Z,91
2018-08-25T18:41:36.000Z,91
2018-08-25T18:42:30.000Z,91
2018-08-25T18:43:30.000Z,91
2018-08-25T18:44:30.000Z,91
2018-08-25T18:45:30.000Z,91
2018-08-25T18:46:29.000Z,91
2018-08-25T18:47:30.000Z,91
2018-08-25T18:48:30.000Z,91
2018-08-25T18:49:30.000Z,91
2018-08-25T18:50:30.000Z,91
2018-08-25T18:51:30.000Z,91
2018-08-25T18:52:30.000Z,91
2018-08-25T18:53:30.000Z,91
2018-08-25T18:54:30.000Z,91
2018-08-25T18:55:30.000Z,91
2018-08-25T18:56:31.000Z,91
2018-08-25T18:57:31.000Z,91
2018-08-25T18:58:31.000Z,91
2018-08-25T18:59:30.000Z,91
2018-08-25T19:00:30.000Z,91
2018-08-25T19:01:30.000Z,91
2018-08-25T19:02:31.000Z,91
2018-08-25T19:03:30.000Z,91
2018-08-25T19:04:31.000Z,91
2018-08-25T19:05:30.000Z,91
2018-08-25T19:06:31.000Z,91
2018-08-25T19:07:31.000Z,91
2018-08-25T19:08:31.000Z,91
2018-08-25T19:09:31.000Z,91
2018-08-25T19:10:31.000Z,91
2018-08-25T19:11:30.000Z,91
2018-08-25T19:12:30.000Z,91
2018-08-25T19:13:30.000Z,91
2018-08-25T19:14:30.000Z,91
2018-08-25T19:15:30.000Z,91
2018-08-25T19:16:31.000Z,91
2018-08-25T19:17:30.000Z,91
2018-08-25T19:18:31.000Z,91
2018-08-25T19:19:31.000Z,91
2018-08-25T19:20:30.000Z,91
2018-08-25T19:21:30.000Z,91
2018-08-25T19:22:31.000Z,91
2018-08-25T19:23:30.000Z,91
2018-08-25T19:24:30.000Z,91
2018-08-25T19:25:31.000Z,91
2018-08-25T19:26:30.000Z,91
2018-08-25T19:27:30.000Z,91
2018-08-25T19:28:31.000Z,91
2018-08-25T19:29:30.000Z,91
2018-08-25T19:30:30.000Z,91
2018-08-25T19:31:31.000Z,91
2018-08-25T19:32:30.000Z,91
2018-08-25T19:33:30.000Z,91
2018-08-25T19:34:30.000Z,91
2018-08-25T19:35:30.000Z,91
2018-08-25T19:36:30.000Z,91
2018-08-25T19:37:30.000Z,91
2018-08-25T19:38:30.000Z,91
2018-08-25T19:39:32.000Z,91
2018-08-25T19:40:31.000Z,91
2018-08-25T19:41:30.000Z,91
2018-08-25T19:42:30.000Z,91
2018-08-25T19:43:31.000Z,91
2018-08-25T19:44:30.000Z,91
2018-08-25T19:45:30.000Z,91
2018-08-25T19:46:31.000Z,91
2018-08-25T19:47:30.000Z,91
2018-08-25T19:48:30.000Z,91
2018-08-25T19:49:31.000Z,91
2018-08-25T19:50:30.000Z,91
2018-08-25T19:51:30.000Z,91
2018-08-25T19:52:31.000Z,91
2018-08-25T19:53:31.000Z,91
2018-08-25T19:54:30.000Z,91
2018-08-25T19:55:31.000Z,91
2018-08-25T19:56:30.000Z,91
2018-08-25T19:57:30.000Z,91
2018-08-25T19:58:31.000Z,91
2018-08-25T19:59:30.000Z,91
2018-08-25T20:00:30.000Z,91
2018-08-25T20:01:31.000Z,91
2018-08-25T20:02:30.000Z,91
2018-08-25T20:03:31.000Z,91
2018-08-25T20:04:31.000Z,91
2018-08-25T20:05:30.000Z,91
2018-08-25T20:06:31.000Z,91
2018-08-25T20:07:31.000Z,90
2018-08-25T20:08:30.000Z,91
2018-08-25T20:09:31.000Z,91
2018-08-25T20:10:31.000Z,91
2018-08-25T20:11:30.000Z,91
2018-08-25T20:12:30.000Z,90
2018-08-25T20:13:30.000Z,90
2018-08-25T20:14:30.000Z,91
2018-08-25T20:15:30.000Z,91
2018-08-25T20:16:30.000Z,90
2018-08-25T20:17:30.000Z,91
2018-08-25T20:18:30.000Z,91
2018-08-25T20:19:30.000Z,91
2018-08-25T20:20:30.000Z,91
2018-08-25T20:21:31.000Z,91
2018-08-25T20:22:31.000Z,91
2018-08-25T20:23:30.000Z,90
2018-08-25T20:24:30.000Z,90
2018-08-25T20:25:30.000Z,90
2018-08-25T20:26:30.000Z,90
2018-08-25T20:27:30.000Z,90
2018-08-25T20:28:30.000Z,90
2018-08-25T20:29:30.000Z,90
2018-08-25T20:30:30.000Z,90
2018-08-25T20:31:31.000Z,90
2018-08-25T20:32:30.000Z,90
2018-08-25T20:33:31.000Z,90
2018-08-25T20:34:30.000Z,90
2018-08-25T20:35:30.000Z,90
2018-08-25T20:36:30.000Z,90
2018-08-25T20:37:30.000Z,90
2018-08-25T20:38:31.000Z,90
2018-08-25T20:39:31.000Z,90
2018-08-25T20:40:30.000Z,90
2018-08-25T20:41:30.000Z,90
2018-08-25T20:42:30.000Z,90
2018-08-25T20:43:30.000Z,90
2018-08-25T20:44:30.000Z,90
2018-08-25T20:45:30.000Z,90
2018-08-25T20:46:30.000Z,90
2018-08-25T20:47:30.000Z,90
2018-08-25T20:48:30.000Z,90
2018-08-25T20:49:30.000Z,90
2018-08-25T20:50:30.000Z,90
2018-08-25T20:51:31.000Z,90
2018-08-25T20:52:31.000Z,90
2018-08-25T20:53:30.000Z,90
2018-08-25T20:54:31.000Z,90
2018-08-25T20:55:30.000Z,90
2018-08-25T20:56:30.000Z,90
2018-08-25T20:57:30.000Z,90
2018-08-25T20:58:31.000Z,90
2018-08-25T20:59:30.000Z,90
2018-08-25T21:00:31.000Z,90
2018-08-25T21:01:30.000Z,90
2018-08-25T21:02:31.000Z,90
2018-08-25T21:03:30.000Z,90
2018-08-25T21:04:31.000Z,90
2018-08-25T21:05:30.000Z,90
2018-08-25T21:06:30.000Z,90
2018-08-25T21:07:30.000Z,90
2018-08-25T21:08:30.000Z,90
2018-08-25T21:09:31.000Z,90
2018-08-25T21:10:30.000Z,90
2018-08-25T21:11:30.000Z,90
2018-08-25T21:12:30.000Z,90
2018-08-25T21:13:30.000Z,90
2018-08-25T21:14:30.000Z,90
2018-08-25T21:15:30.000Z,90
2018-08-25T21:16:30.000Z,90
2018-08-25T21:17:30.000Z,90
